createdAt,value
2018-10-19T00:01:30.408Z,7.13
2018-10-19T00:03:57.888Z,5.30
2018-10-19T00:06:25.364Z,5.97
2018-10-19T00:08:52.901Z,6.63
2018-10-19T00:11:20.426Z,11.17
2018-10-19T00:13:47.910Z,4.13
2018-10-19T00:16:15.402Z,5.10
2018-10-19T00:18:42.880Z,4.20
2018-10-19T00:21:10.413Z,3.33
2018-10-19T00:23:37.865Z,1.97
2018-10-19T00:26:05.401Z,1.83
2018-10-19T00:28:32.862Z,3.13
2018-10-19T00:31:00.385Z,4.90
2018-10-19T00:33:27.868Z,3.90
2018-10-19T00:35:55.357Z,3.23
2018-10-19T00:38:22.842Z,1.07
2018-10-19T00:40:50.421Z,2.80
2018-10-19T00:43:17.953Z,2.17
2018-10-19T00:45:46.332Z,1.67
2018-10-19T00:48:17.979Z,2.37
2018-10-19T00:50:45.481Z,1.53
2018-10-19T00:53:13.318Z,5.10
2018-10-19T00:55:40.844Z,1.97
2018-10-19T00:58:08.401Z,3.40
2018-10-19T01:00:41.750Z,1.00
2018-10-19T01:03:09.637Z,2.93
2018-10-19T01:05:38.116Z,1.83
2018-10-19T01:08:06.144Z,5.03
2018-10-19T01:10:33.606Z,10.53
2018-10-19T01:13:01.121Z,6.87
2018-10-19T01:15:29.484Z,4.90
2018-10-19T01:17:57.459Z,2.10
2018-10-19T01:20:24.949Z,1.53
2018-10-19T01:22:52.438Z,5.80
2018-10-19T01:25:19.921Z,2.70
2018-10-19T01:27:47.469Z,4.60
2018-10-19T01:30:15.018Z,5.37
2018-10-19T01:32:42.511Z,3.30
2018-10-19T01:35:11.212Z,6.13
2018-10-19T01:37:38.717Z,4.07
2018-10-19T01:40:07.636Z,1.90
2018-10-19T01:42:35.129Z,2.97
2018-10-19T01:45:02.728Z,3.03
2018-10-19T01:47:30.201Z,2.57
2018-10-19T01:49:57.726Z,3.13
2018-10-19T01:52:25.241Z,4.20
2018-10-19T01:54:52.712Z,5.30
2018-10-19T01:57:21.057Z,2.73
2018-10-19T01:59:48.549Z,7.80
2018-10-19T02:02:16.027Z,2.40
2018-10-19T02:04:43.519Z,3.30
2018-10-19T02:07:11.043Z,2.90
2018-10-19T02:09:38.507Z,5.97
2018-10-19T02:12:06.140Z,3.60
2018-10-19T02:14:33.634Z,1.90
2018-10-19T02:17:01.246Z,8.27
2018-10-19T02:19:28.697Z,1.70
2018-10-19T02:21:56.221Z,3.83
2018-10-19T02:24:23.715Z,7.77
2018-10-19T02:26:51.181Z,8.80
2018-10-19T02:29:18.651Z,3.33
2018-10-19T02:31:46.166Z,3.30
2018-10-19T02:34:13.673Z,4.60
2018-10-19T02:36:41.392Z,3.80
2018-10-19T02:39:08.892Z,6.63
2018-10-19T02:41:36.413Z,4.27
2018-10-19T02:44:03.957Z,6.43
2018-10-19T02:46:31.465Z,5.67
2018-10-19T02:48:58.959Z,4.40
2018-10-19T02:51:26.441Z,5.83
2018-10-19T02:53:53.962Z,3.50
2018-10-19T02:56:21.441Z,4.33
2018-10-19T02:58:48.919Z,4.60
2018-10-19T03:01:16.472Z,9.67
2018-10-19T03:03:43.941Z,10.67
2018-10-19T03:06:11.487Z,6.93
2018-10-19T03:08:38.954Z,4.83
2018-10-19T03:11:06.834Z,7.93
2018-10-19T03:13:34.308Z,6.13
2018-10-19T03:16:01.791Z,2.23
2018-10-19T03:18:29.264Z,6.93
2018-10-19T03:20:56.759Z,3.80
2018-10-19T03:23:24.239Z,6.80
2018-10-19T03:25:51.725Z,5.43
2018-10-19T03:28:19.238Z,6.17
2018-10-19T03:30:46.717Z,5.47
2018-10-19T03:33:14.240Z,7.70
2018-10-19T03:35:41.734Z,5.20
2018-10-19T03:38:09.220Z,3.93
2018-10-19T03:40:36.693Z,3.17
2018-10-19T03:43:04.883Z,4.70
2018-10-19T03:45:32.726Z,4.93
2018-10-19T03:48:00.203Z,5.03
2018-10-19T03:50:27.675Z,6.23
2018-10-19T03:52:55.613Z,3.03
2018-10-19T03:55:23.070Z,3.67
2018-10-19T03:57:50.618Z,4.33
2018-10-19T04:00:18.158Z,8.27
2018-10-19T04:02:45.642Z,5.40
2018-10-19T04:05:13.235Z,5.83
2018-10-19T04:07:40.784Z,3.97
2018-10-19T04:10:08.331Z,6.57
2018-10-19T04:12:35.828Z,8.37
2018-10-19T04:15:03.639Z,5.47
2018-10-19T04:17:31.092Z,2.67
2018-10-19T04:19:58.611Z,5.30
2018-10-19T04:22:26.067Z,3.20
2018-10-19T04:24:53.564Z,12.90
2018-10-19T04:27:21.223Z,4.03
2018-10-19T04:29:48.580Z,7.47
2018-10-19T04:32:16.087Z,7.60
2018-10-19T04:34:43.564Z,4.20
2018-10-19T04:37:11.030Z,6.40
2018-10-19T04:39:38.520Z,5.13
2018-10-19T04:42:06.227Z,5.47
2018-10-19T04:44:33.554Z,5.17
2018-10-19T04:47:01.093Z,6.60
2018-10-19T04:49:28.764Z,5.60
2018-10-19T04:51:56.292Z,3.97
2018-10-19T04:54:23.767Z,3.53
2018-10-19T04:56:51.333Z,5.47
2018-10-19T04:59:18.860Z,5.57
2018-10-19T05:01:46.365Z,5.70
2018-10-19T05:04:13.890Z,5.13
2018-10-19T05:06:41.480Z,8.50
2018-10-19T05:09:10.757Z,5.37
2018-10-19T05:11:38.638Z,4.13
2018-10-19T05:14:06.405Z,6.53
2018-10-19T05:16:34.246Z,4.57
2018-10-19T05:19:01.857Z,6.10
2018-10-19T05:21:29.337Z,8.07
2018-10-19T05:23:56.817Z,6.30
2018-10-19T05:26:24.613Z,11.00
2018-10-19T05:28:52.159Z,6.33
2018-10-19T05:31:22.559Z,12.27
2018-10-19T05:33:50.724Z,6.83
2018-10-19T05:36:18.253Z,7.37
2018-10-19T05:38:45.761Z,7.77
2018-10-19T05:41:13.422Z,5.87
2018-10-19T05:43:41.004Z,10.23
2018-10-19T05:46:08.448Z,13.37
2018-10-19T05:48:36.015Z,4.23
2018-10-19T05:51:03.525Z,5.93
2018-10-19T05:53:31.071Z,7.93
2018-10-19T05:55:58.642Z,8.93
2018-10-19T05:58:26.273Z,9.67
2018-10-19T06:00:53.830Z,10.03
2018-10-19T06:03:21.378Z,6.70
2018-10-19T06:05:49.105Z,12.17
2018-10-19T06:08:16.677Z,10.13
2018-10-19T06:10:44.178Z,5.43
2018-10-19T06:13:11.741Z,8.13
2018-10-19T06:15:39.251Z,6.37
2018-10-19T06:18:06.797Z,5.17
2018-10-19T06:20:34.281Z,9.67
2018-10-19T06:23:01.843Z,8.07
2018-10-19T06:25:29.359Z,5.17
2018-10-19T06:27:56.897Z,7.57
2018-10-19T06:30:24.521Z,5.30
2018-10-19T06:32:52.017Z,6.23
2018-10-19T06:35:19.504Z,7.60
2018-10-19T06:37:46.972Z,4.93
2018-10-19T06:40:14.475Z,6.10
2018-10-19T06:42:41.990Z,10.73
2018-10-19T06:45:09.572Z,6.47
2018-10-19T06:47:37.067Z,11.00
2018-10-19T06:50:06.893Z,8.43
2018-10-19T06:52:34.340Z,6.20
2018-10-19T06:55:01.876Z,8.20
2018-10-19T06:57:29.367Z,6.60
2018-10-19T06:59:56.853Z,5.17
2018-10-19T07:02:24.387Z,7.77
2018-10-19T07:04:51.918Z,9.57
2018-10-19T07:07:19.417Z,10.20
2018-10-19T07:09:46.945Z,7.90
2018-10-19T07:12:14.485Z,15.93
2018-10-19T07:14:41.931Z,7.63
2018-10-19T07:17:09.488Z,13.87
2018-10-19T07:19:36.911Z,11.17
2018-10-19T07:22:04.501Z,8.20
2018-10-19T07:24:31.993Z,7.00
2018-10-19T07:26:59.473Z,17.77
2018-10-19T07:29:27.011Z,8.17
2018-10-19T07:31:54.506Z,13.23
2018-10-19T07:34:22.004Z,5.93
2018-10-19T07:36:49.542Z,8.23
2018-10-19T07:39:17.056Z,11.00
2018-10-19T07:41:44.593Z,14.87
2018-10-19T07:44:12.160Z,11.63
2018-10-19T07:46:39.649Z,9.33
2018-10-19T07:49:07.128Z,11.17
2018-10-19T07:51:34.630Z,8.00
2018-10-19T07:54:02.156Z,9.63
2018-10-19T07:56:29.614Z,10.47
2018-10-19T07:58:57.139Z,11.07
2018-10-19T08:01:24.636Z,11.93
2018-10-19T08:03:52.325Z,11.37
2018-10-19T08:06:19.854Z,11.10
2018-10-19T08:08:47.463Z,10.43
2018-10-19T08:11:15.090Z,8.90
2018-10-19T08:13:42.520Z,7.57
2018-10-19T08:16:10.054Z,9.00
2018-10-19T08:18:37.589Z,13.63
2018-10-19T08:21:05.698Z,17.20
2018-10-19T08:23:33.193Z,13.83
2018-10-19T08:26:01.015Z,13.20
2018-10-19T08:28:28.488Z,13.97
2018-10-19T08:30:55.978Z,22.97
2018-10-19T08:33:23.452Z,12.93
2018-10-19T08:35:50.989Z,16.87
2018-10-19T08:38:18.547Z,13.60
2018-10-19T08:40:46.003Z,16.77
2018-10-19T08:43:13.556Z,15.17
2018-10-19T08:45:41.022Z,14.00
2018-10-19T08:48:08.529Z,19.60
2018-10-19T08:50:36.082Z,18.37
2018-10-19T08:53:03.672Z,20.43
2018-10-19T08:55:31.292Z,16.97
2018-10-19T08:57:58.849Z,12.87
2018-10-19T09:00:26.305Z,27.43
2018-10-19T09:02:53.860Z,24.93
2018-10-19T09:05:21.341Z,25.97
2018-10-19T09:07:48.844Z,18.80
2018-10-19T09:10:16.328Z,26.73
2018-10-19T09:12:43.970Z,24.37
2018-10-19T09:15:11.469Z,18.07
2018-10-19T09:17:38.928Z,22.87
2018-10-19T09:20:06.591Z,23.87
2018-10-19T09:22:34.146Z,19.93
2018-10-19T09:25:01.645Z,21.57
2018-10-19T09:27:29.142Z,20.77
2018-10-19T09:29:56.670Z,26.73
2018-10-19T09:32:24.193Z,26.47
2018-10-19T09:34:51.708Z,27.27
2018-10-19T09:37:19.190Z,20.03
2018-10-19T09:39:46.700Z,26.23
2018-10-19T09:42:14.270Z,23.43
2018-10-19T09:44:41.720Z,22.30
2018-10-19T09:47:09.263Z,25.17
2018-10-19T09:49:36.757Z,24.57
2018-10-19T09:52:04.324Z,24.63
2018-10-19T09:54:31.824Z,23.80
2018-10-19T09:56:59.355Z,24.37
2018-10-19T09:59:26.909Z,29.90
2018-10-19T10:01:54.461Z,26.60
2018-10-19T10:04:21.937Z,25.97
2018-10-19T10:06:49.453Z,24.33
2018-10-19T10:09:17.442Z,20.50
2018-10-19T10:11:44.952Z,25.60
2018-10-19T10:14:12.529Z,33.23
2018-10-19T10:16:40.099Z,25.17
2018-10-19T10:19:07.722Z,25.77
2018-10-19T10:21:35.326Z,23.20
2018-10-19T10:24:02.902Z,27.27
2018-10-19T10:26:30.407Z,21.97
2018-10-19T10:28:57.923Z,26.50
2018-10-19T10:31:25.443Z,23.57
2018-10-19T10:33:52.979Z,25.27
2018-10-19T10:36:20.443Z,21.73
2018-10-19T10:38:48.046Z,22.60
2018-10-19T10:41:15.504Z,24.37
2018-10-19T10:43:43.024Z,24.50
2018-10-19T10:46:10.639Z,24.70
2018-10-19T10:48:38.176Z,21.27
2018-10-19T10:51:05.681Z,28.67
2018-10-19T10:53:33.194Z,26.03
2018-10-19T10:56:00.717Z,28.77
2018-10-19T10:58:28.228Z,25.33
2018-10-19T11:00:55.780Z,27.87
2018-10-19T11:03:23.239Z,32.43
2018-10-19T11:05:50.740Z,27.73
2018-10-19T11:08:18.231Z,24.83
2018-10-19T11:10:45.739Z,25.57
2018-10-19T11:13:13.366Z,25.10
2018-10-19T11:15:40.747Z,26.10
2018-10-19T11:18:08.437Z,24.90
2018-10-19T11:20:35.948Z,22.97
2018-10-19T11:23:03.555Z,21.63
2018-10-19T11:25:31.028Z,25.30
2018-10-19T11:27:58.612Z,23.93
2018-10-19T11:30:26.146Z,19.40
2018-10-19T11:32:53.644Z,22.57
2018-10-19T11:35:21.185Z,25.80
2018-10-19T11:37:48.786Z,20.70
2018-10-19T11:40:26.320Z,24.57
2018-10-19T11:42:54.617Z,19.23
2018-10-19T11:45:22.908Z,20.47
2018-10-19T11:47:50.405Z,30.63
2018-10-19T11:50:17.918Z,24.23
2018-10-19T11:52:45.744Z,23.93
2018-10-19T11:55:13.459Z,24.57
2018-10-19T11:57:40.831Z,24.57
2018-10-19T12:00:08.962Z,19.57
2018-10-19T12:02:36.533Z,19.93
2018-10-19T12:05:04.790Z,19.73
2018-10-19T12:07:32.338Z,19.73
2018-10-19T12:09:59.907Z,18.67
2018-10-19T12:12:27.378Z,19.57
2018-10-19T12:14:54.939Z,18.87
2018-10-19T12:17:22.489Z,24.77
2018-10-19T12:19:49.990Z,18.73
2018-10-19T12:22:17.558Z,21.73
2018-10-19T12:24:45.254Z,19.07
2018-10-19T12:27:12.903Z,18.83
2018-10-19T12:29:40.368Z,18.37
2018-10-19T12:32:08.237Z,18.27
2018-10-19T12:34:36.000Z,21.20
2018-10-19T12:37:03.657Z,15.60
2018-10-19T12:39:31.143Z,22.10
2018-10-19T12:41:58.880Z,23.38
2018-10-19T12:44:26.448Z,19.05
2018-10-19T12:47:05.389Z,20.02
2018-10-19T12:49:32.928Z,19.15
2018-10-19T12:52:00.409Z,28.35
2018-10-19T12:54:28.051Z,17.32
2018-10-19T12:56:55.512Z,22.52
2018-10-19T12:59:23.022Z,21.17
2018-10-19T13:01:50.534Z,22.07
2018-10-19T13:04:18.018Z,14.20
2018-10-19T13:06:45.514Z,17.25
2018-10-19T13:09:13.672Z,18.20
2018-10-19T13:11:41.336Z,20.68
2018-10-19T13:14:08.920Z,18.00
2018-10-19T13:16:36.406Z,27.17
2018-10-19T13:19:04.062Z,20.68
2018-10-19T13:21:31.499Z,19.43
2018-10-19T13:23:59.054Z,24.93
2018-10-19T13:26:26.516Z,20.67
2018-10-19T13:28:54.012Z,21.73
2018-10-19T13:31:21.528Z,21.53
2018-10-19T13:33:49.044Z,20.03
2018-10-19T13:36:16.581Z,22.73
2018-10-19T13:38:44.081Z,22.87
2018-10-19T13:41:11.596Z,22.07
2018-10-19T13:43:39.713Z,22.40
2018-10-19T13:46:07.246Z,15.53
2018-10-19T13:48:34.928Z,21.53
2018-10-19T13:51:02.498Z,23.80
2018-10-19T13:53:29.948Z,20.97
2018-10-19T13:55:57.449Z,22.87
2018-10-19T13:58:25.042Z,18.97
2018-10-19T14:00:52.498Z,22.27
2018-10-19T14:03:20.019Z,18.10
2018-10-19T14:05:47.558Z,17.23
2018-10-19T14:08:15.072Z,18.30
2018-10-19T14:10:42.575Z,18.23
2018-10-19T14:13:10.080Z,20.07
2018-10-19T14:15:37.589Z,17.77
2018-10-19T14:18:05.298Z,16.43
2018-10-19T14:20:32.805Z,18.20
2018-10-19T14:23:00.342Z,16.33
2018-10-19T14:25:27.885Z,19.10
2018-10-19T14:27:55.416Z,21.37
2018-10-19T14:30:22.950Z,22.10
2018-10-19T14:32:50.629Z,28.20
2018-10-19T14:35:18.139Z,19.47
2018-10-19T14:37:46.115Z,18.17
2018-10-19T14:40:15.813Z,19.00
2018-10-19T14:42:43.845Z,21.10
2018-10-19T14:45:12.465Z,19.37
2018-10-19T14:47:40.629Z,18.80
2018-10-19T14:50:09.839Z,23.80
2018-10-19T14:52:37.337Z,17.63
2018-10-19T14:55:06.647Z,22.23
2018-10-19T14:57:34.125Z,18.63
2018-10-19T15:00:01.691Z,17.30
2018-10-19T15:02:29.213Z,18.10
2018-10-19T15:04:56.818Z,17.63
2018-10-19T15:07:24.267Z,14.70
2018-10-19T15:09:51.861Z,19.40
2018-10-19T15:12:19.245Z,16.93
2018-10-19T15:14:46.741Z,20.20
2018-10-19T15:17:14.260Z,17.47
2018-10-19T15:19:41.771Z,17.77
2018-10-19T15:22:09.301Z,19.87
2018-10-19T15:24:36.799Z,20.47
2018-10-19T15:27:04.327Z,17.73
2018-10-19T15:29:31.835Z,15.40
2018-10-19T15:31:59.305Z,13.87
2018-10-19T15:34:26.789Z,17.07
2018-10-19T15:36:54.297Z,16.93
2018-10-19T15:39:21.783Z,14.97
2018-10-19T15:41:49.257Z,14.60
2018-10-19T15:44:16.816Z,12.77
2018-10-19T15:46:44.377Z,11.73
2018-10-19T15:49:11.937Z,15.77
2018-10-19T15:51:39.487Z,16.60
2018-10-19T15:54:07.037Z,11.17
2018-10-19T15:56:34.543Z,13.93
2018-10-19T15:59:02.083Z,11.10
2018-10-19T16:01:29.553Z,12.23
2018-10-19T16:03:57.099Z,10.73
2018-10-19T16:06:24.613Z,11.83
2018-10-19T16:08:52.130Z,11.70
2018-10-19T16:11:19.609Z,10.70
2018-10-19T16:13:47.133Z,10.90
2018-10-19T16:16:14.665Z,11.23
2018-10-19T16:18:42.137Z,14.43
2018-10-19T16:21:09.708Z,12.20
2018-10-19T16:23:37.165Z,16.03
2018-10-19T16:26:04.727Z,10.70
2018-10-19T16:28:32.458Z,11.10
2018-10-19T16:30:59.877Z,16.23
2018-10-19T16:33:27.672Z,13.40
2018-10-19T16:35:55.255Z,14.10
2018-10-19T16:38:22.855Z,12.03
2018-10-19T16:40:50.400Z,16.23
2018-10-19T16:43:17.943Z,7.33
2018-10-19T16:45:45.471Z,11.10
2018-10-19T16:48:13.028Z,11.70
2018-10-19T16:50:40.623Z,6.60
2018-10-19T16:53:08.533Z,9.33
2018-10-19T16:55:35.939Z,12.80
2018-10-19T16:58:03.642Z,8.87
2018-10-19T17:00:31.204Z,10.57
2018-10-19T17:02:58.775Z,7.43
2018-10-19T17:05:26.554Z,8.00
2018-10-19T17:07:54.202Z,7.03
2018-10-19T17:10:21.706Z,8.73
2018-10-19T17:12:49.250Z,7.80
2018-10-19T17:15:16.711Z,6.30
2018-10-19T17:17:44.297Z,9.40
2018-10-19T17:20:11.900Z,5.83
2018-10-19T17:22:39.384Z,8.93
2018-10-19T17:25:08.998Z,10.40
2018-10-19T17:27:36.580Z,11.27
2018-10-19T17:30:06.135Z,7.03
2018-10-19T17:32:33.719Z,6.10
2018-10-19T17:35:01.255Z,8.83
2018-10-19T17:37:28.803Z,6.07
2018-10-19T17:39:56.292Z,7.63
2018-10-19T17:42:23.798Z,9.80
2018-10-19T17:44:51.278Z,11.33
2018-10-19T17:47:18.804Z,9.33
2018-10-19T17:49:46.320Z,8.63
2018-10-19T17:52:13.782Z,11.33
2018-10-19T17:54:41.285Z,8.37
2018-10-19T17:57:08.845Z,6.60
2018-10-19T17:59:36.347Z,5.97
2018-10-19T18:02:04.109Z,10.40
2018-10-19T18:04:31.599Z,11.00
2018-10-19T18:06:59.385Z,8.30
2018-10-19T18:09:26.994Z,10.77
2018-10-19T18:11:54.468Z,9.60
2018-10-19T18:14:21.973Z,6.97
2018-10-19T18:16:49.693Z,11.60
2018-10-19T18:19:17.205Z,6.33
2018-10-19T18:21:44.842Z,7.60
2018-10-19T18:24:12.191Z,9.00
2018-10-19T18:26:39.701Z,12.07
2018-10-19T18:29:07.246Z,8.93
2018-10-19T18:31:34.735Z,8.37
2018-10-19T18:34:02.288Z,8.93
2018-10-19T18:36:29.874Z,9.47
2018-10-19T18:38:57.498Z,10.80
2018-10-19T18:41:25.075Z,11.50
2018-10-19T18:43:52.649Z,12.40
2018-10-19T18:46:20.132Z,9.13
2018-10-19T18:48:47.646Z,9.73
2018-10-19T18:51:15.160Z,9.53
2018-10-19T18:53:42.668Z,14.97
2018-10-19T18:56:10.199Z,17.53
2018-10-19T18:58:37.672Z,11.10
2018-10-19T19:01:05.199Z,11.67
2018-10-19T19:03:32.728Z,10.40
2018-10-19T19:06:00.224Z,14.53
2018-10-19T19:08:27.749Z,13.93
2018-10-19T19:10:55.342Z,12.33
2018-10-19T19:13:27.818Z,12.10
2018-10-19T19:15:55.372Z,13.83
2018-10-19T19:18:22.856Z,13.97
2018-10-19T19:20:50.373Z,22.50
2018-10-19T19:23:17.979Z,17.57
2018-10-19T19:25:52.042Z,15.70
2018-10-19T19:28:19.551Z,15.57
2018-10-19T19:30:47.079Z,9.97
2018-10-19T19:33:20.309Z,14.07
2018-10-19T19:35:47.895Z,14.90
2018-10-19T19:38:15.555Z,14.07
2018-10-19T19:40:48.751Z,16.00
2018-10-19T19:43:16.309Z,10.27
2018-10-19T19:45:43.861Z,10.47
2018-10-19T19:48:17.034Z,10.63
2018-10-19T19:50:44.612Z,14.40
2018-10-19T19:53:12.267Z,12.17
2018-10-19T19:55:39.751Z,12.37
2018-10-19T19:58:07.418Z,12.67
2018-10-19T20:00:34.897Z,10.10
2018-10-19T20:03:02.404Z,15.50
2018-10-19T20:05:29.914Z,12.70
2018-10-19T20:07:57.420Z,15.73
2018-10-19T20:10:25.025Z,15.63
2018-10-19T20:12:52.543Z,16.07
2018-10-19T20:15:20.054Z,14.77
2018-10-19T20:17:47.741Z,13.47
2018-10-19T20:20:15.286Z,19.07
2018-10-19T20:22:42.897Z,12.43
2018-10-19T20:25:11.435Z,12.33
2018-10-19T20:27:39.371Z,12.77
2018-10-19T20:30:09.404Z,8.93
2018-10-19T20:32:37.607Z,10.83
2018-10-19T20:35:05.243Z,20.33
2018-10-19T20:37:32.826Z,17.13
2018-10-19T20:40:00.364Z,13.43
2018-10-19T20:42:27.897Z,11.10
2018-10-19T20:44:55.454Z,13.03
2018-10-19T20:47:23.058Z,19.30
2018-10-19T20:49:50.644Z,9.77
2018-10-19T20:52:18.220Z,13.30
2018-10-19T20:54:45.799Z,13.90
2018-10-19T20:57:13.316Z,16.80
2018-10-19T20:59:40.810Z,16.07
2018-10-19T21:02:08.555Z,16.27
2018-10-19T21:04:36.047Z,14.80
2018-10-19T21:07:03.597Z,14.77
2018-10-19T21:09:31.118Z,13.50
2018-10-19T21:11:58.629Z,15.67
2018-10-19T21:14:26.101Z,11.27
2018-10-19T21:16:53.707Z,12.87
2018-10-19T21:19:21.283Z,14.70
2018-10-19T21:21:48.869Z,15.97
2018-10-19T21:24:16.585Z,12.90
2018-10-19T21:26:44.340Z,16.20
2018-10-19T21:29:11.826Z,21.03
2018-10-19T21:31:39.448Z,15.17
2018-10-19T21:34:06.912Z,13.63
2018-10-19T21:36:34.663Z,15.40
2018-10-19T21:39:02.271Z,14.40
2018-10-19T21:41:30.046Z,13.70
2018-10-19T21:43:57.647Z,13.37
2018-10-19T21:46:25.135Z,10.97
2018-10-19T21:48:52.618Z,14.03
2018-10-19T21:51:20.097Z,11.03
2018-10-19T21:53:47.625Z,13.40
2018-10-19T21:56:15.201Z,15.33
2018-10-19T21:58:42.640Z,13.77
2018-10-19T22:01:10.133Z,9.37
2018-10-19T22:03:37.619Z,14.13
2018-10-19T22:06:05.170Z,12.37
2018-10-19T22:08:32.719Z,10.70
2018-10-19T22:11:00.271Z,9.50
2018-10-19T22:13:27.696Z,13.80
2018-10-19T22:15:55.218Z,10.50
2018-10-19T22:18:22.732Z,11.77
2018-10-19T22:20:50.224Z,17.03
2018-10-19T22:23:17.829Z,11.40
2018-10-19T22:25:45.248Z,17.33
2018-10-19T22:28:12.747Z,14.13
2018-10-19T22:30:40.276Z,15.50
2018-10-19T22:33:07.785Z,16.87
2018-10-19T22:35:35.271Z,16.70
2018-10-19T22:38:02.785Z,13.23
2018-10-19T22:40:30.288Z,14.87
2018-10-19T22:42:57.806Z,18.23
2018-10-19T22:45:25.317Z,13.90
2018-10-19T22:47:52.819Z,14.20
2018-10-19T22:50:20.305Z,15.13
2018-10-19T22:52:47.798Z,20.23
2018-10-19T22:55:15.296Z,16.97
2018-10-19T22:57:42.748Z,17.37
2018-10-19T23:00:10.283Z,12.73
2018-10-19T23:02:37.755Z,14.43
2018-10-19T23:05:05.344Z,16.60
2018-10-19T23:07:32.845Z,16.97
2018-10-19T23:10:00.342Z,16.47
2018-10-19T23:12:27.824Z,15.57
2018-10-19T23:14:55.313Z,15.50
2018-10-19T23:17:22.797Z,17.83
2018-10-19T23:19:50.272Z,17.07
2018-10-19T23:22:17.786Z,18.00
2018-10-19T23:24:45.287Z,15.60
2018-10-19T23:27:12.796Z,16.97
2018-10-19T23:29:40.295Z,11.87
2018-10-19T23:32:07.838Z,15.03
2018-10-19T23:34:35.641Z,14.43
2018-10-19T23:37:03.380Z,13.87
2018-10-19T23:39:30.825Z,22.70
2018-10-19T23:41:58.330Z,12.63
2018-10-19T23:44:25.841Z,16.10
2018-10-19T23:46:53.332Z,15.17
2018-10-19T23:49:20.798Z,12.93
2018-10-19T23:51:48.305Z,16.23
2018-10-19T23:54:15.805Z,15.80
2018-10-19T23:56:43.353Z,12.47
2018-10-19T23:59:10.944Z,20.00
